Rechercher aéroport 
image banner adimage banner adimage banner ad
image banner ad

CL15 - Sce Ridgecrest Service Center

Situé à Ridgecrest, United States

ICAO - CL15, IATA -

Données fournies par Airmate  

Information générale

Coordonnées: N35°36'53" W117°40'6"
Élévation : 2288 feet MSL.
Variation magnétique : 14° East
Voir autres Aéroports à California

Données opérationnelles

Special qualification required
Heure actuelle UTC:
Heure actuelle locale:
METAR: KNID 251356Z AUTO 16003KT 10SM CLR 27/04 A2995 RMK AO2 SLP115 T02720039 $
Voir NOTAMs / SUP AIP / TFR affectant cet aéroport [VIEW]
Fréquences de communication: [VIEW]

Pistes:

Coordonnées de l'aéroport

Adresse: Ridgecrest United States

Vue satellite de CL15